createdAt,value
2017-08-27T00:01:05.944Z,18.90
2017-08-27T00:03:33.472Z,18.80
2017-08-27T00:06:00.976Z,18.70
2017-08-27T00:08:28.500Z,18.70
2017-08-27T00:10:56.003Z,18.70
2017-08-27T00:13:23.531Z,18.60
2017-08-27T00:15:51.039Z,18.60
2017-08-27T00:18:18.563Z,18.60
2017-08-27T00:20:46.068Z,18.60
2017-08-27T00:23:13.591Z,18.50
2017-08-27T00:28:15.087Z,18.40
2017-08-27T00:30:42.591Z,18.40
2017-08-27T00:33:10.111Z,18.40
2017-08-27T00:35:37.611Z,18.40
2017-08-27T00:38:05.126Z,18.30
2017-08-27T00:40:32.626Z,18.30
2017-08-27T00:43:00.146Z,18.20
2017-08-27T00:45:27.647Z,18.20
2017-08-27T00:47:55.151Z,18.20
2017-08-27T00:50:22.984Z,18.10
2017-08-27T00:52:51.256Z,18.10
2017-08-27T00:55:18.771Z,18.00
2017-08-27T00:57:46.275Z,18.00
2017-08-27T01:00:13.799Z,18.00
2017-08-27T01:02:41.303Z,17.90
2017-08-27T01:05:08.819Z,17.90
2017-08-27T01:07:36.319Z,17.90
2017-08-27T01:10:03.844Z,17.90
2017-08-27T01:12:31.354Z,17.80
2017-08-27T01:14:58.874Z,17.80
2017-08-27T01:17:26.379Z,17.80
2017-08-27T01:19:53.899Z,17.80
2017-08-27T01:22:22.168Z,17.70
2017-08-27T01:24:49.686Z,17.70
2017-08-27T01:27:17.186Z,17.70
2017-08-27T01:29:44.706Z,17.70
2017-08-27T01:32:12.203Z,17.70
2017-08-27T01:34:39.727Z,17.70
2017-08-27T01:37:07.234Z,17.70
2017-08-27T01:39:34.755Z,17.70
2017-08-27T01:42:02.259Z,17.70
2017-08-27T01:44:29.775Z,17.70
2017-08-27T01:46:57.270Z,17.70
2017-08-27T01:49:24.767Z,17.70
2017-08-27T01:51:52.287Z,17.60
2017-08-27T01:54:19.791Z,17.60
2017-08-27T01:56:47.311Z,17.50
2017-08-27T01:59:14.815Z,17.40
2017-08-27T02:01:42.331Z,17.50
2017-08-27T02:04:09.836Z,17.40
2017-08-27T02:06:37.356Z,17.40
2017-08-27T02:09:04.862Z,17.30
2017-08-27T02:11:32.378Z,17.30
2017-08-27T02:13:59.884Z,17.30
2017-08-27T02:16:28.176Z,17.30
2017-08-27T02:18:55.679Z,17.30
2017-08-27T02:21:23.199Z,17.30
2017-08-27T02:23:50.698Z,17.20
2017-08-27T02:26:18.214Z,17.20
2017-08-27T02:28:46.482Z,17.20
2017-08-27T02:31:14.004Z,17.20
2017-08-27T02:33:41.516Z,17.10
2017-08-27T02:36:09.034Z,17.10
2017-08-27T02:38:36.535Z,17.10
2017-08-27T02:41:04.047Z,17.10
2017-08-27T02:43:31.550Z,17.10
2017-08-27T02:45:59.071Z,17.10
2017-08-27T02:48:26.579Z,17.10
2017-08-27T02:50:54.100Z,17.10
2017-08-27T02:53:21.631Z,17.00
2017-08-27T02:55:49.133Z,17.00
2017-08-27T02:58:16.651Z,17.00
2017-08-27T03:00:44.155Z,16.90
2017-08-27T03:03:11.676Z,17.00
2017-08-27T03:05:39.174Z,17.00
2017-08-27T03:08:06.690Z,17.00
2017-08-27T03:10:34.186Z,17.00
2017-08-27T03:13:01.703Z,17.00
2017-08-27T03:15:29.204Z,17.00
2017-08-27T03:17:56.721Z,16.90
2017-08-27T03:20:24.232Z,16.90
2017-08-27T03:22:51.743Z,17.00
2017-08-27T03:25:19.248Z,16.90
2017-08-27T03:27:46.767Z,16.90
2017-08-27T03:30:14.272Z,16.90
2017-08-27T03:32:41.787Z,17.00
2017-08-27T03:35:09.448Z,17.00
2017-08-27T03:37:36.999Z,17.10
2017-08-27T03:40:04.506Z,17.10
2017-08-27T03:42:32.020Z,17.20
2017-08-27T03:44:59.527Z,17.20
2017-08-27T03:47:27.043Z,17.10
2017-08-27T03:49:55.315Z,17.10
2017-08-27T03:52:23.615Z,17.10
2017-08-27T03:54:51.114Z,17.10
2017-08-27T03:57:18.623Z,17.10
2017-08-27T03:59:46.911Z,17.00
2017-08-27T04:02:14.420Z,17.00
2017-08-27T04:04:41.940Z,17.00
2017-08-27T04:07:09.439Z,17.00
2017-08-27T04:09:36.966Z,17.00
2017-08-27T04:12:04.466Z,17.00
2017-08-27T04:14:31.986Z,16.90
2017-08-27T04:16:59.482Z,16.90
2017-08-27T04:19:26.996Z,17.00
2017-08-27T04:21:54.495Z,16.90
2017-08-27T04:24:22.011Z,16.90
2017-08-27T04:26:49.511Z,16.90
2017-08-27T04:29:17.039Z,16.90
2017-08-27T04:31:44.539Z,16.90
2017-08-27T04:34:12.051Z,17.10
2017-08-27T04:36:39.547Z,17.10
2017-08-27T04:39:07.063Z,17.10
2017-08-27T04:41:34.566Z,17.10
2017-08-27T04:44:02.099Z,17.10
2017-08-27T04:46:29.599Z,17.20
2017-08-27T04:48:57.099Z,17.10
2017-08-27T04:51:24.619Z,17.10
2017-08-27T04:53:52.114Z,17.10
2017-08-27T04:56:19.634Z,17.10
2017-08-27T04:58:47.130Z,17.10
2017-08-27T05:01:14.651Z,17.10
2017-08-27T05:03:42.154Z,17.10
2017-08-27T05:06:09.676Z,17.10
2017-08-27T05:08:37.183Z,17.20
2017-08-27T05:11:04.703Z,17.20
2017-08-27T05:13:32.209Z,17.30
2017-08-27T05:15:59.730Z,17.30
2017-08-27T05:18:27.241Z,17.50
2017-08-27T05:20:54.767Z,17.60
2017-08-27T05:23:22.262Z,17.60
2017-08-27T05:25:49.783Z,17.60
2017-08-27T05:28:17.287Z,17.70
2017-08-27T05:30:44.811Z,17.70
2017-08-27T05:33:12.318Z,17.70
2017-08-27T05:35:39.834Z,17.80
2017-08-27T05:38:07.335Z,17.80
2017-08-27T05:40:34.855Z,17.90
2017-08-27T05:43:02.351Z,17.90
2017-08-27T05:45:29.878Z,18.00
2017-08-27T05:47:57.394Z,18.10
2017-08-27T05:50:24.899Z,18.20
2017-08-27T05:52:52.419Z,18.30
2017-08-27T05:55:19.919Z,18.40
2017-08-27T05:57:47.438Z,18.50
2017-08-27T06:00:14.943Z,18.60
2017-08-27T06:02:42.462Z,18.60
2017-08-27T06:05:09.969Z,18.70
2017-08-27T06:07:37.488Z,18.80
2017-08-27T06:10:04.996Z,18.90
2017-08-27T06:12:32.522Z,19.00
2017-08-27T06:15:00.022Z,19.30
2017-08-27T06:17:27.543Z,19.50
2017-08-27T06:19:55.039Z,19.80
2017-08-27T06:22:22.564Z,19.90
2017-08-27T06:24:50.067Z,19.90
2017-08-27T06:27:17.587Z,19.90
2017-08-27T06:29:45.099Z,19.90
2017-08-27T06:32:12.615Z,19.90
2017-08-27T06:34:40.111Z,19.90
2017-08-27T06:37:07.626Z,19.80
2017-08-27T06:39:35.122Z,19.80
2017-08-27T06:42:02.647Z,19.80
2017-08-27T06:44:30.147Z,19.90
2017-08-27T06:46:57.678Z,20.00
2017-08-27T06:49:25.174Z,19.90
2017-08-27T06:51:52.671Z,20.00
2017-08-27T06:54:20.200Z,20.00
2017-08-27T06:56:47.704Z,20.10
2017-08-27T06:59:15.229Z,20.50
2017-08-27T07:01:43.499Z,21.10
2017-08-27T07:04:11.016Z,21.00
2017-08-27T07:06:38.514Z,21.10
2017-08-27T07:09:06.030Z,21.00
2017-08-27T07:11:33.531Z,20.60
2017-08-27T07:14:01.056Z,20.50
2017-08-27T07:16:28.558Z,20.30
2017-08-27T07:18:56.084Z,20.00
2017-08-27T07:21:23.582Z,19.80
2017-08-27T07:23:51.104Z,19.70
2017-08-27T07:26:18.602Z,19.70
2017-08-27T07:28:46.122Z,19.70
2017-08-27T07:31:13.623Z,19.80
2017-08-27T07:33:41.144Z,19.80
2017-08-27T07:36:08.646Z,19.80
2017-08-27T07:38:36.160Z,19.70
2017-08-27T07:41:03.664Z,19.60
2017-08-27T07:43:31.182Z,19.60
2017-08-27T07:45:58.685Z,19.50
2017-08-27T07:48:26.203Z,19.50
2017-08-27T07:50:53.711Z,19.50
2017-08-27T07:53:21.211Z,19.70
2017-08-27T07:55:48.730Z,20.10
2017-08-27T07:58:16.232Z,20.40
2017-08-27T08:00:43.752Z,20.70
2017-08-27T08:03:11.267Z,21.10
2017-08-27T08:05:38.787Z,21.40
2017-08-27T08:08:06.292Z,21.70
2017-08-27T08:10:33.812Z,22.00
2017-08-27T08:13:01.311Z,22.30
2017-08-27T08:15:28.824Z,22.60
2017-08-27T08:17:56.330Z,22.90
2017-08-27T08:20:24.423Z,23.20
2017-08-27T08:22:51.924Z,23.40
2017-08-27T08:25:19.452Z,23.50
2017-08-27T08:27:46.947Z,23.70
2017-08-27T08:30:14.467Z,24.00
2017-08-27T08:32:41.966Z,24.20
2017-08-27T08:35:09.491Z,24.50
2017-08-27T08:37:36.995Z,24.70
2017-08-27T08:40:04.512Z,24.90
2017-08-27T08:42:32.007Z,25.10
2017-08-27T08:44:59.518Z,25.00
2017-08-27T08:47:27.019Z,24.80
2017-08-27T08:49:54.542Z,24.70
2017-08-27T08:52:22.047Z,24.80
2017-08-27T08:54:49.555Z,25.10
2017-08-27T08:57:17.072Z,25.40
2017-08-27T08:59:44.570Z,25.50
2017-08-27T09:02:12.088Z,25.70
2017-08-27T09:04:39.591Z,25.60
2017-08-27T09:07:07.109Z,25.40
2017-08-27T09:09:34.603Z,25.50
2017-08-27T09:12:02.119Z,25.60
2017-08-27T09:14:29.622Z,25.50
2017-08-27T09:16:57.143Z,25.30
2017-08-27T09:19:24.643Z,25.10
2017-08-27T09:21:52.171Z,24.90
2017-08-27T09:24:19.671Z,24.80
2017-08-27T09:26:47.190Z,25.00
2017-08-27T09:29:14.697Z,25.50
2017-08-27T09:31:42.215Z,25.80
2017-08-27T09:34:09.711Z,26.10
2017-08-27T09:36:37.235Z,26.30
2017-08-27T09:39:04.739Z,26.40
2017-08-27T09:41:32.271Z,26.40
2017-08-27T09:43:59.771Z,26.60
2017-08-27T09:46:27.288Z,26.80
2017-08-27T09:48:54.794Z,26.80
2017-08-27T09:51:22.320Z,26.80
2017-08-27T09:53:49.821Z,26.70
2017-08-27T09:56:17.326Z,26.40
2017-08-27T09:58:44.855Z,26.10
2017-08-27T10:01:12.359Z,25.70
2017-08-27T10:03:40.656Z,25.70
2017-08-27T10:06:08.160Z,25.70
2017-08-27T10:08:35.679Z,25.90
2017-08-27T10:11:03.182Z,26.20
2017-08-27T10:13:30.706Z,26.40
2017-08-27T10:15:58.211Z,26.40
2017-08-27T10:18:25.736Z,26.40
2017-08-27T10:20:53.246Z,26.40
2017-08-27T10:23:20.771Z,26.50
2017-08-27T10:25:48.283Z,26.50
2017-08-27T10:28:15.808Z,26.60
2017-08-27T10:30:43.312Z,26.80
2017-08-27T10:33:10.834Z,26.90
2017-08-27T10:35:38.346Z,27.00
2017-08-27T10:38:05.891Z,26.80
2017-08-27T10:40:33.399Z,26.80
2017-08-27T10:43:00.923Z,27.00
2017-08-27T10:45:29.271Z,27.10
2017-08-27T10:47:56.792Z,27.20
2017-08-27T10:50:25.011Z,27.20
2017-08-27T10:52:52.527Z,27.30
2017-08-27T10:55:20.027Z,27.50
2017-08-27T10:57:47.526Z,27.60
2017-08-27T11:00:15.039Z,27.60
2017-08-27T11:02:42.543Z,27.50
2017-08-27T11:05:10.818Z,27.30
2017-08-27T11:07:38.320Z,27.30
2017-08-27T11:10:05.834Z,27.20
2017-08-27T11:12:33.335Z,27.00
2017-08-27T11:15:00.860Z,27.00
2017-08-27T11:17:28.368Z,27.10
2017-08-27T11:19:55.887Z,27.10
2017-08-27T11:22:23.395Z,27.00
2017-08-27T11:24:50.914Z,27.00
2017-08-27T11:27:18.420Z,26.80
2017-08-27T11:29:45.942Z,26.80
2017-08-27T11:32:13.447Z,26.70
2017-08-27T11:34:40.967Z,26.80
2017-08-27T11:37:08.466Z,26.70
2017-08-27T11:39:35.987Z,26.70
2017-08-27T11:42:03.490Z,26.70
2017-08-27T11:44:31.047Z,26.40
2017-08-27T11:46:58.546Z,26.50
2017-08-27T11:49:26.072Z,26.50
2017-08-27T11:51:53.576Z,26.50
2017-08-27T11:54:21.108Z,26.50
2017-08-27T11:56:48.612Z,26.70
2017-08-27T11:59:16.111Z,27.10
2017-08-27T12:01:43.638Z,27.40
2017-08-27T12:04:11.135Z,27.70
2017-08-27T12:06:38.655Z,28.10
2017-08-27T12:09:06.166Z,28.30
2017-08-27T12:11:33.704Z,28.50
2017-08-27T12:14:01.214Z,28.60
2017-08-27T12:16:28.728Z,28.60
2017-08-27T12:18:56.227Z,28.30
2017-08-27T12:21:23.747Z,28.00
2017-08-27T12:23:51.247Z,27.90
2017-08-27T12:26:18.773Z,27.90
2017-08-27T12:28:46.272Z,27.60
2017-08-27T12:31:13.822Z,27.50
2017-08-27T12:33:41.339Z,27.60
2017-08-27T12:36:08.858Z,27.70
2017-08-27T12:38:36.367Z,27.90
2017-08-27T12:41:03.887Z,27.90
2017-08-27T12:43:31.397Z,27.70
2017-08-27T12:45:58.919Z,27.70
2017-08-27T12:48:26.424Z,27.60
2017-08-27T12:50:53.943Z,27.40
2017-08-27T12:53:21.449Z,27.30
2017-08-27T12:55:48.986Z,27.30
2017-08-27T12:58:16.486Z,27.40
2017-08-27T13:00:43.991Z,27.20
2017-08-27T13:03:11.527Z,27.00
2017-08-27T13:05:39.026Z,26.80
2017-08-27T13:08:06.544Z,26.60
2017-08-27T13:10:34.043Z,26.70
2017-08-27T13:13:01.572Z,26.90
2017-08-27T13:15:29.074Z,27.10
2017-08-27T13:17:56.595Z,27.20
2017-08-27T13:20:24.532Z,27.20
2017-08-27T13:22:52.055Z,27.30
2017-08-27T13:25:19.561Z,27.20
2017-08-27T13:27:47.076Z,26.80
2017-08-27T13:30:14.592Z,26.70
2017-08-27T13:32:42.879Z,26.50
2017-08-27T13:35:10.392Z,26.50
2017-08-27T13:37:37.907Z,26.30
2017-08-27T13:40:05.415Z,26.20
2017-08-27T13:42:32.935Z,26.10
2017-08-27T13:45:00.435Z,26.10
2017-08-27T13:47:27.951Z,26.00
2017-08-27T13:49:55.455Z,26.10
2017-08-27T13:52:22.979Z,26.10
2017-08-27T13:54:50.479Z,26.20
2017-08-27T13:57:18.015Z,26.20
2017-08-27T13:59:45.522Z,26.10
2017-08-27T14:02:13.023Z,26.10
2017-08-27T14:04:40.551Z,26.10
2017-08-27T14:07:08.047Z,26.00
2017-08-27T14:09:36.335Z,25.80
2017-08-27T14:12:03.843Z,25.80
2017-08-27T14:14:31.358Z,25.80
2017-08-27T14:16:58.863Z,25.80
2017-08-27T14:19:26.387Z,25.80
2017-08-27T14:21:53.879Z,25.70
2017-08-27T14:24:21.401Z,25.60
2017-08-27T14:26:48.903Z,25.50
2017-08-27T14:29:16.414Z,25.30
2017-08-27T14:31:43.916Z,25.20
2017-08-27T14:34:11.436Z,25.20
2017-08-27T14:36:39.711Z,25.10
2017-08-27T14:39:07.244Z,25.10
2017-08-27T14:41:34.747Z,24.90
2017-08-27T14:44:02.274Z,24.80
2017-08-27T14:46:29.775Z,24.80
2017-08-27T14:48:57.291Z,24.80
2017-08-27T14:51:24.789Z,24.90
2017-08-27T14:53:52.312Z,24.80
2017-08-27T14:56:19.820Z,24.70
2017-08-27T14:58:47.352Z,24.70
2017-08-27T15:01:14.855Z,24.50
2017-08-27T15:03:42.359Z,24.40
2017-08-27T15:06:09.879Z,24.30
2017-08-27T15:08:37.383Z,24.30
2017-08-27T15:11:05.666Z,24.20
2017-08-27T15:13:33.179Z,24.20
2017-08-27T15:16:00.701Z,24.00
2017-08-27T15:18:28.203Z,23.90
2017-08-27T15:20:55.723Z,23.60
2017-08-27T15:23:23.228Z,23.60
2017-08-27T15:25:50.747Z,23.50
2017-08-27T15:28:18.247Z,23.30
2017-08-27T15:30:46.547Z,23.10
2017-08-27T15:33:14.051Z,23.10
2017-08-27T15:35:41.574Z,23.10
2017-08-27T15:38:09.079Z,23.10
2017-08-27T15:40:36.594Z,23.20
2017-08-27T15:43:04.860Z,23.00
2017-08-27T15:45:32.379Z,23.00
2017-08-27T15:47:59.891Z,23.00
2017-08-27T15:50:27.415Z,22.90
2017-08-27T15:52:54.924Z,22.80
2017-08-27T15:55:22.443Z,22.70
2017-08-27T15:57:49.952Z,22.70
2017-08-27T16:00:17.489Z,22.50
2017-08-27T16:02:44.995Z,22.50
2017-08-27T16:05:12.507Z,22.50
2017-08-27T16:07:40.027Z,22.40
2017-08-27T16:10:07.530Z,22.30
2017-08-27T16:12:35.051Z,22.20
2017-08-27T16:15:02.556Z,22.20
2017-08-27T16:17:30.072Z,22.30
2017-08-27T16:19:57.575Z,22.20
2017-08-27T16:22:25.094Z,22.20
2017-08-27T16:24:52.599Z,22.20
2017-08-27T16:27:20.126Z,22.20
2017-08-27T16:29:47.635Z,22.20
2017-08-27T16:32:15.151Z,22.10
2017-08-27T16:34:42.651Z,22.10
2017-08-27T16:37:10.185Z,22.00
2017-08-27T16:39:37.687Z,22.00
2017-08-27T16:42:05.211Z,22.00
2017-08-27T16:44:32.712Z,21.90
2017-08-27T16:50:00.603Z,22.00
2017-08-27T16:52:28.130Z,21.90
2017-08-27T16:54:55.639Z,21.90
2017-08-27T16:57:23.171Z,21.90
2017-08-27T16:59:50.679Z,21.80
2017-08-27T17:02:18.203Z,21.80
2017-08-27T17:04:45.710Z,21.70
2017-08-27T17:07:13.235Z,21.70
2017-08-27T17:09:40.742Z,21.60
2017-08-27T17:12:08.263Z,21.60
2017-08-27T17:14:35.775Z,21.60
2017-08-27T17:17:03.318Z,21.50
2017-08-27T17:19:30.827Z,21.40
2017-08-27T17:21:58.327Z,21.40
2017-08-27T17:24:25.859Z,21.20
2017-08-27T17:26:53.363Z,21.10
2017-08-27T17:29:20.879Z,21.10
2017-08-27T17:31:48.386Z,21.00
2017-08-27T17:34:15.911Z,21.00
2017-08-27T17:36:43.419Z,20.90
2017-08-27T17:39:10.939Z,20.80
2017-08-27T17:41:38.447Z,20.90
2017-08-27T17:44:05.971Z,20.90
2017-08-27T17:46:33.483Z,20.90
2017-08-27T17:49:00.999Z,20.80
2017-08-27T17:51:29.267Z,20.80
2017-08-27T17:53:57.556Z,20.80
2017-08-27T17:56:25.066Z,20.80
2017-08-27T17:58:52.588Z,20.70
2017-08-27T18:01:20.112Z,20.50
2017-08-27T18:03:47.631Z,20.40
2017-08-27T18:06:15.130Z,20.30
2017-08-27T18:08:42.634Z,20.20
2017-08-27T18:11:10.158Z,20.20
2017-08-27T18:13:37.663Z,20.00
2017-08-27T18:16:05.199Z,19.90
2017-08-27T18:18:32.707Z,19.80
2017-08-27T18:21:00.233Z,19.70
2017-08-27T18:23:27.731Z,19.60
2017-08-27T18:25:55.286Z,19.60
2017-08-27T18:28:22.793Z,19.50
2017-08-27T18:30:50.319Z,19.40
2017-08-27T18:33:17.829Z,19.40
2017-08-27T18:35:45.346Z,19.30
2017-08-27T18:38:12.855Z,19.30
2017-08-27T18:40:40.379Z,19.20
2017-08-27T18:43:07.887Z,19.10
2017-08-27T18:45:35.411Z,19.00
2017-08-27T18:48:02.919Z,19.00
2017-08-27T18:50:30.452Z,19.00
2017-08-27T18:52:57.955Z,18.90
2017-08-27T18:55:25.479Z,19.00
2017-08-27T18:57:52.983Z,18.80
2017-08-27T19:00:20.503Z,18.80
2017-08-27T19:02:53.735Z,18.80
2017-08-27T19:05:21.259Z,18.70
2017-08-27T19:07:49.530Z,18.60
2017-08-27T19:10:17.070Z,18.60
2017-08-27T19:12:44.574Z,18.60
2017-08-27T19:15:12.084Z,18.50
2017-08-27T19:17:39.607Z,18.50
2017-08-27T19:20:07.112Z,18.50
2017-08-27T19:22:34.643Z,18.50
2017-08-27T19:25:02.154Z,18.50
2017-08-27T19:27:30.451Z,18.40
2017-08-27T19:29:57.955Z,18.40
2017-08-27T19:32:25.483Z,18.40
2017-08-27T19:34:52.986Z,18.40
2017-08-27T19:37:20.519Z,18.40
2017-08-27T19:39:48.029Z,18.40
2017-08-27T19:42:15.551Z,18.50
2017-08-27T19:44:43.071Z,18.50
2017-08-27T19:47:10.603Z,18.50
2017-08-27T19:49:38.116Z,18.60
2017-08-27T19:52:05.640Z,18.50
2017-08-27T19:54:33.139Z,18.50
2017-08-27T19:57:00.663Z,18.50
2017-08-27T19:59:28.168Z,18.40
2017-08-27T20:01:55.695Z,18.30
2017-08-27T20:04:23.202Z,18.30
2017-08-27T20:06:50.719Z,18.20
2017-08-27T20:09:18.227Z,18.10
2017-08-27T20:11:45.771Z,18.10
2017-08-27T20:14:13.279Z,18.00
2017-08-27T20:16:40.787Z,18.00
2017-08-27T20:19:08.383Z,17.90
2017-08-27T20:21:35.892Z,17.90
2017-08-27T20:24:03.412Z,17.80
2017-08-27T20:26:30.938Z,17.80
2017-08-27T20:28:58.463Z,17.80
2017-08-27T20:31:25.969Z,17.70
2017-08-27T20:33:53.496Z,17.70
2017-08-27T20:36:21.775Z,17.60
2017-08-27T20:38:49.294Z,17.60
2017-08-27T20:41:16.803Z,17.60
2017-08-27T20:43:44.322Z,17.60
2017-08-27T20:46:11.827Z,17.60
2017-08-27T20:48:39.351Z,17.60
2017-08-27T20:51:06.859Z,17.60
2017-08-27T20:53:34.384Z,17.60
2017-08-27T20:56:01.887Z,17.50
2017-08-27T20:58:29.412Z,17.50
2017-08-27T21:00:56.923Z,17.50
2017-08-27T21:03:24.445Z,17.50
2017-08-27T21:05:51.955Z,17.40
2017-08-27T21:08:19.475Z,17.40
2017-08-27T21:10:46.979Z,17.40
2017-08-27T21:13:14.519Z,17.40
2017-08-27T21:15:42.023Z,17.40
2017-08-27T21:18:09.527Z,17.40
2017-08-27T21:20:37.051Z,17.30
2017-08-27T21:23:04.554Z,17.30
2017-08-27T21:25:32.079Z,17.20
2017-08-27T21:27:59.588Z,17.30
2017-08-27T21:30:27.114Z,17.20
2017-08-27T21:32:54.622Z,17.10
2017-08-27T21:35:22.922Z,17.10
2017-08-27T21:37:50.423Z,17.00
2017-08-27T21:40:17.946Z,17.00
2017-08-27T21:42:45.455Z,17.00
2017-08-27T21:45:12.975Z,17.00
2017-08-27T21:47:40.475Z,16.90
2017-08-27T21:50:07.999Z,16.90
2017-08-27T21:52:35.509Z,16.80
2017-08-27T21:55:03.032Z,16.80
2017-08-27T21:57:30.538Z,16.80
2017-08-27T21:59:58.064Z,16.80
2017-08-27T22:02:25.576Z,16.80
2017-08-27T22:04:53.108Z,16.80
2017-08-27T22:07:20.615Z,16.80
2017-08-27T22:09:48.136Z,16.80
2017-08-27T22:12:15.639Z,16.80
2017-08-27T22:14:43.178Z,16.80
2017-08-27T22:17:10.687Z,16.80
2017-08-27T22:19:38.196Z,16.80
2017-08-27T22:22:05.735Z,16.90
2017-08-27T22:24:34.011Z,16.90
2017-08-27T22:27:01.535Z,16.90
2017-08-27T22:29:29.039Z,17.00
2017-08-27T22:31:56.622Z,17.00
2017-08-27T22:34:24.130Z,17.10
2017-08-27T22:36:51.656Z,17.10
2017-08-27T22:39:19.164Z,17.10
2017-08-27T22:41:46.683Z,17.10
2017-08-27T22:44:14.182Z,17.10
2017-08-27T22:46:41.699Z,17.10
2017-08-27T22:49:09.207Z,17.10
2017-08-27T22:51:36.731Z,17.00
2017-08-27T22:54:04.243Z,17.00
2017-08-27T22:56:31.771Z,16.90
2017-08-27T22:58:59.271Z,16.90
2017-08-27T23:01:26.791Z,16.90
2017-08-27T23:03:54.286Z,16.90
2017-08-27T23:06:21.805Z,16.90
2017-08-27T23:08:49.307Z,16.90
2017-08-27T23:11:16.831Z,16.90
2017-08-27T23:13:44.331Z,16.90
2017-08-27T23:16:11.867Z,16.90
2017-08-27T23:18:39.375Z,16.90
2017-08-27T23:21:06.890Z,16.90
2017-08-27T23:23:34.411Z,16.90
2017-08-27T23:26:01.914Z,16.90
2017-08-27T23:28:29.439Z,16.90
2017-08-27T23:30:56.981Z,16.90
2017-08-27T23:33:24.508Z,16.80
2017-08-27T23:35:52.021Z,16.90
2017-08-27T23:38:19.548Z,16.90
2017-08-27T23:40:47.060Z,16.90
2017-08-27T23:43:14.583Z,16.80
2017-08-27T23:45:42.087Z,16.80
2017-08-27T23:48:09.619Z,16.80
2017-08-27T23:50:37.123Z,16.80
2017-08-27T23:53:04.647Z,16.70
2017-08-27T23:55:32.155Z,16.70
2017-08-27T23:57:59.675Z,16.70
